createdAt,value
2022-12-18T00:01:46.317Z,102148.28
2022-12-18T00:04:19.901Z,102161.56
2022-12-18T00:06:46.737Z,102153.69
2022-12-18T00:09:18.219Z,102149.75
2022-12-18T00:11:44.887Z,102143.31
2022-12-18T00:14:15.091Z,102143.41
2022-12-18T00:16:44.277Z,102140.34
2022-12-18T00:19:11.224Z,102142.91
2022-12-18T00:21:40.857Z,102148.72
2022-12-18T00:24:07.965Z,102152.66
2022-12-18T00:26:35.338Z,102162.72
2022-12-18T00:29:03.508Z,102175.50
2022-12-18T00:31:35.645Z,102171.59
2022-12-18T00:34:02.431Z,102173.00
2022-12-18T00:36:30.495Z,102160.03
2022-12-18T00:38:57.769Z,102166.19
2022-12-18T00:41:43.720Z,102162.59
2022-12-18T00:44:11.647Z,102159.66
2022-12-18T00:46:38.220Z,102169.94
2022-12-18T00:49:05.384Z,102158.25
2022-12-18T00:51:32.010Z,102167.69
2022-12-18T00:54:01.079Z,102172.44
2022-12-18T00:56:27.742Z,102179.28
2022-12-18T00:58:55.001Z,102172.72
2022-12-18T01:01:21.684Z,102180.53
2022-12-18T01:03:48.493Z,102187.19
2022-12-18T01:06:17.043Z,102183.09
2022-12-18T01:08:44.679Z,102174.59
2022-12-18T01:11:14.751Z,102174.09
2022-12-18T01:13:41.966Z,102186.09
2022-12-18T01:16:10.028Z,102192.56
2022-12-18T01:18:36.988Z,102207.38
2022-12-18T01:21:07.582Z,102198.13
2022-12-18T01:23:37.412Z,102210.13
2022-12-18T01:26:12.871Z,102205.69
2022-12-18T01:28:39.786Z,102202.06
2022-12-18T01:31:29.152Z,102214.53
2022-12-18T01:33:56.067Z,102215.47
2022-12-18T01:36:22.623Z,102218.38
2022-12-18T01:38:49.749Z,102215.88
2022-12-18T01:41:17.717Z,102224.56
2022-12-18T01:43:45.655Z,102215.97
2022-12-18T01:46:13.355Z,102212.69
2022-12-18T01:48:40.444Z,102214.22
2022-12-18T01:51:08.102Z,102217.66
2022-12-18T01:53:39.074Z,102212.09
2022-12-18T01:56:06.249Z,102204.22
2022-12-18T01:58:52.705Z,102201.53
2022-12-18T02:01:19.491Z,102212.22
2022-12-18T02:03:46.445Z,102207.75
2022-12-18T02:06:19.873Z,102205.53
2022-12-18T02:08:55.635Z,102217.97
2022-12-18T02:11:34.611Z,102216.03
2022-12-18T02:14:09.063Z,102212.31
2022-12-18T02:16:41.071Z,102209.72
2022-12-18T02:19:21.986Z,102197.00
2022-12-18T02:21:51.660Z,102203.75
2022-12-18T02:24:34.863Z,102201.13
2022-12-18T02:27:10.029Z,102203.75
2022-12-18T02:29:40.267Z,102195.44
2022-12-18T02:32:14.107Z,102196.84
2022-12-18T02:34:41.331Z,102209.94
2022-12-18T02:37:16.051Z,102216.84
2022-12-18T02:39:44.504Z,102221.28
2022-12-18T02:42:13.584Z,102219.84
2022-12-18T02:44:55.344Z,102215.06
2022-12-18T02:47:28.637Z,102207.34
2022-12-18T02:50:03.537Z,102217.91
2022-12-18T02:52:39.616Z,102213.69
2022-12-18T02:55:29.614Z,102223.38
2022-12-18T02:58:13.651Z,102220.59
2022-12-18T03:00:44.397Z,102224.91
2022-12-18T03:03:15.430Z,102218.91
2022-12-18T03:05:46.808Z,102216.47
2022-12-18T03:08:20.284Z,102210.91
2022-12-18T03:11:10.014Z,102210.31
2022-12-18T03:13:52.258Z,102211.72
2022-12-18T03:16:23.908Z,102208.25
2022-12-18T03:18:54.814Z,102211.72
2022-12-18T03:21:23.855Z,102215.38
2022-12-18T03:23:52.713Z,102221.59
2022-12-18T03:26:25.814Z,102228.63
2022-12-18T03:29:03.288Z,102232.25
2022-12-18T03:31:32.836Z,102228.72
2022-12-18T03:34:02.001Z,102221.19
2022-12-18T03:36:38.136Z,102214.88
2022-12-18T03:39:04.911Z,102222.19
2022-12-18T03:41:44.836Z,102224.53
2022-12-18T03:44:33.467Z,102219.44
2022-12-18T03:47:00.218Z,102215.47
2022-12-18T03:49:33.429Z,102221.41
2022-12-18T03:52:00.808Z,102216.75
2022-12-18T03:54:29.436Z,102208.09
2022-12-18T03:57:21.668Z,102208.75
2022-12-18T03:59:53.161Z,102213.28
2022-12-18T04:02:24.739Z,102213.50
2022-12-18T04:04:53.438Z,102205.41
2022-12-18T04:07:21.906Z,102200.38
2022-12-18T04:09:54.661Z,102201.88
2022-12-18T04:12:25.161Z,102198.72
2022-12-18T04:14:51.840Z,102213.28
2022-12-18T04:17:18.883Z,102209.34
2022-12-18T04:19:45.767Z,102212.59
2022-12-18T04:22:12.522Z,102210.94
2022-12-18T04:24:50.031Z,102216.88
2022-12-18T04:27:25.442Z,102219.25
2022-12-18T04:29:52.200Z,102221.53
2022-12-18T04:32:19.159Z,102215.94
2022-12-18T04:34:47.673Z,102225.06
2022-12-18T04:37:14.413Z,102229.06
2022-12-18T04:39:41.048Z,102233.25
2022-12-18T04:42:14.614Z,102228.34
2022-12-18T04:44:44.252Z,102227.94
2022-12-18T04:47:10.911Z,102235.56
2022-12-18T04:49:37.757Z,102228.59
2022-12-18T04:52:04.483Z,102226.63
2022-12-18T04:54:31.045Z,102225.31
2022-12-18T04:57:00.699Z,102228.06
2022-12-18T04:59:27.367Z,102235.66
2022-12-18T05:01:54.280Z,102239.16
2022-12-18T05:04:21.010Z,102231.44
2022-12-18T05:06:47.679Z,102243.19
2022-12-18T05:09:14.786Z,102238.75
2022-12-18T05:11:41.472Z,102231.38
2022-12-18T05:14:08.121Z,102229.31
2022-12-18T05:16:35.120Z,102222.38
2022-12-18T05:19:01.774Z,102222.19
2022-12-18T05:21:28.352Z,102228.91
2022-12-18T05:23:54.933Z,102223.47
2022-12-18T05:26:21.725Z,102224.47
2022-12-18T05:28:48.319Z,102218.94
2022-12-18T05:31:24.139Z,102213.13
2022-12-18T05:33:53.022Z,102215.47
2022-12-18T05:36:19.563Z,102218.25
2022-12-18T05:38:48.476Z,102225.72
2022-12-18T05:41:15.064Z,102222.19
2022-12-18T05:43:42.246Z,102211.03
2022-12-18T05:46:13.110Z,102217.28
2022-12-18T05:48:40.100Z,102215.25
2022-12-18T05:51:08.191Z,102225.94
2022-12-18T05:53:35.370Z,102235.81
2022-12-18T05:56:03.361Z,102226.53
2022-12-18T05:58:30.282Z,102226.00
2022-12-18T06:00:57.017Z,102228.91
2022-12-18T06:03:29.248Z,102233.34
2022-12-18T06:05:59.004Z,102238.91
2022-12-18T06:08:25.663Z,102234.88
2022-12-18T06:10:53.459Z,102245.50
2022-12-18T06:13:20.768Z,102247.06
2022-12-18T06:15:47.521Z,102245.78
2022-12-18T06:18:15.508Z,102252.56
2022-12-18T06:20:42.540Z,102249.00
2022-12-18T06:23:10.430Z,102241.88
2022-12-18T06:25:38.710Z,102254.38
2022-12-18T06:28:05.756Z,102251.72
2022-12-18T06:30:32.464Z,102260.56
2022-12-18T06:32:59.057Z,102263.28
2022-12-18T06:35:27.903Z,102262.69
2022-12-18T06:37:54.523Z,102273.19
2022-12-18T06:40:21.569Z,102261.69
2022-12-18T06:42:48.182Z,102269.63
2022-12-18T06:45:14.884Z,102269.31
2022-12-18T06:47:41.493Z,102266.34
2022-12-18T06:50:08.353Z,102283.94
2022-12-18T06:52:34.972Z,102291.72
2022-12-18T06:55:01.637Z,102283.44
2022-12-18T06:57:28.292Z,102281.13
2022-12-18T06:59:55.139Z,102284.97
2022-12-18T07:02:21.795Z,102280.78
2022-12-18T07:04:48.529Z,102283.22
2022-12-18T07:07:18.498Z,102284.81
2022-12-18T07:09:45.110Z,102288.97
2022-12-18T07:12:11.686Z,102288.16
2022-12-18T07:14:38.505Z,102287.06
2022-12-18T07:17:05.162Z,102286.03
2022-12-18T07:19:36.318Z,102281.16
2022-12-18T07:22:03.022Z,102292.31
2022-12-18T07:24:29.692Z,102301.28
2022-12-18T07:26:56.340Z,102310.47
2022-12-18T07:29:22.875Z,102311.44
2022-12-18T07:31:50.241Z,102311.03
2022-12-18T07:34:16.996Z,102315.84
2022-12-18T07:36:43.617Z,102318.28
2022-12-18T07:39:12.007Z,102315.13
2022-12-18T07:41:43.769Z,102322.47
2022-12-18T07:44:13.772Z,102320.13
2022-12-18T07:46:40.486Z,102325.75
2022-12-18T07:49:07.214Z,102345.94
2022-12-18T07:51:33.852Z,102341.66
2022-12-18T07:54:00.483Z,102346.16
2022-12-18T07:56:28.551Z,102348.06
2022-12-18T07:58:57.646Z,102368.88
2022-12-18T08:01:24.814Z,102361.81
2022-12-18T08:03:52.164Z,102361.81
2022-12-18T08:06:19.295Z,102372.16
2022-12-18T08:08:49.159Z,102364.53
2022-12-18T08:11:16.392Z,102369.88
2022-12-18T08:13:43.449Z,102377.16
2022-12-18T08:16:10.195Z,102375.09
2022-12-18T08:18:37.756Z,102373.28
2022-12-18T08:21:10.685Z,102370.53
2022-12-18T08:23:43.051Z,102366.56
2022-12-18T08:26:11.088Z,102351.06
2022-12-18T08:28:37.636Z,102339.69
2022-12-18T08:31:04.955Z,102342.16
2022-12-18T08:33:31.737Z,102338.41
2022-12-18T08:35:59.297Z,102350.66
2022-12-18T08:38:25.913Z,102341.56
2022-12-18T08:41:06.265Z,102352.41
2022-12-18T08:43:51.521Z,102355.16
2022-12-18T08:46:19.182Z,102356.31
2022-12-18T08:48:46.028Z,102353.00
2022-12-18T08:51:13.108Z,102347.38
2022-12-18T08:53:42.407Z,102346.72
2022-12-18T08:56:09.238Z,102341.97
2022-12-18T08:58:35.817Z,102347.16
2022-12-18T09:01:03.878Z,102337.19
2022-12-18T09:03:30.708Z,102327.03
2022-12-18T09:05:57.469Z,102325.88
2022-12-18T09:08:24.113Z,102330.53
2022-12-18T09:10:53.787Z,102315.09
2022-12-18T09:13:20.386Z,102308.66
2022-12-18T09:15:51.462Z,102306.22
2022-12-18T09:18:19.240Z,102306.53
2022-12-18T09:20:46.317Z,102301.94
2022-12-18T09:23:13.273Z,102304.78
2022-12-18T09:25:42.832Z,102301.25
2022-12-18T09:28:12.217Z,102311.53
2022-12-18T09:30:40.734Z,102298.75
2022-12-18T09:33:07.348Z,102290.44
2022-12-18T09:35:36.897Z,102293.06
2022-12-18T09:38:07.086Z,102282.22
2022-12-18T09:40:44.923Z,102278.50
2022-12-18T09:43:34.901Z,102280.94
2022-12-18T09:46:07.629Z,102275.75
2022-12-18T09:48:42.939Z,102283.56
2022-12-18T09:51:20.791Z,102273.28
2022-12-18T09:53:56.614Z,102263.03
2022-12-18T09:56:24.098Z,102261.97
2022-12-18T09:58:56.601Z,102261.06
2022-12-18T10:01:24.254Z,102258.75
2022-12-18T10:03:51.602Z,102260.13
2022-12-18T10:06:36.629Z,102268.28
2022-12-18T10:09:29.723Z,102276.22
2022-12-18T10:12:08.609Z,102267.09
2022-12-18T10:14:43.305Z,102268.81
2022-12-18T10:17:28.829Z,102277.53
2022-12-18T10:20:14.980Z,102270.28
2022-12-18T10:22:47.748Z,102256.66
2022-12-18T10:25:35.433Z,102259.06
2022-12-18T10:28:09.896Z,102265.69
2022-12-18T10:30:41.140Z,102273.44
2022-12-18T10:33:15.530Z,102274.56
2022-12-18T10:35:43.373Z,102278.31
2022-12-18T10:38:15.472Z,102282.69
2022-12-18T10:40:50.570Z,102289.69
2022-12-18T10:43:20.873Z,102306.88
2022-12-18T10:45:59.226Z,102303.47
2022-12-18T10:48:26.174Z,102304.44
2022-12-18T10:53:41.381Z,102294.09
2022-12-18T10:56:08.120Z,102282.94
2022-12-18T10:58:36.179Z,102269.50
2022-12-18T11:01:02.820Z,102266.88
2022-12-18T11:03:31.502Z,102256.41
2022-12-18T11:06:18.443Z,102253.16
2022-12-18T11:08:58.871Z,102244.72
2022-12-18T11:11:29.093Z,102237.66
2022-12-18T11:14:04.500Z,102233.50
2022-12-18T11:16:34.541Z,102234.84
2022-12-18T11:19:14.289Z,102235.50
2022-12-18T11:21:42.571Z,102232.84
2022-12-18T11:24:26.126Z,102221.94
2022-12-18T11:26:59.365Z,102220.41
2022-12-18T11:29:32.266Z,102221.97
2022-12-18T11:32:31.642Z,102219.50
2022-12-18T11:35:17.780Z,102205.63
2022-12-18T11:37:47.036Z,102207.78
2022-12-18T11:40:18.764Z,102203.91
2022-12-18T11:43:07.935Z,102208.44
2022-12-18T11:45:40.518Z,102211.38
2022-12-18T11:48:20.056Z,102200.75
2022-12-18T11:50:51.839Z,102215.25
2022-12-18T11:53:18.694Z,102229.09
2022-12-18T11:55:53.283Z,102233.75
2022-12-18T11:58:31.325Z,102232.03
2022-12-18T12:01:06.324Z,102222.31
2022-12-18T12:03:42.766Z,102221.69
2022-12-18T12:06:28.691Z,102214.81
2022-12-18T12:09:14.041Z,102206.75
2022-12-18T12:11:40.853Z,102205.03
2022-12-18T12:14:18.545Z,102207.16
2022-12-18T12:16:58.401Z,102205.72
2022-12-18T12:19:28.166Z,102199.06
2022-12-18T12:22:03.440Z,102178.13
2022-12-18T12:24:49.204Z,102163.19
2022-12-18T12:27:22.081Z,102163.88
2022-12-18T12:29:48.863Z,102154.59
2022-12-18T12:32:27.606Z,102158.16
2022-12-18T12:35:11.746Z,102163.44
2022-12-18T12:37:47.485Z,102162.59
2022-12-18T12:40:49.809Z,102149.16
2022-12-18T12:43:14.513Z,102145.06
2022-12-18T12:45:54.199Z,102135.13
2022-12-18T12:48:45.082Z,102137.25
2022-12-18T12:51:16.776Z,102148.16
2022-12-18T12:53:43.966Z,102138.47
2022-12-18T12:56:12.220Z,102138.88
2022-12-18T12:58:58.178Z,102138.88
2022-12-18T13:01:28.166Z,102138.03
2022-12-18T13:04:02.012Z,102138.81
2022-12-18T13:06:44.909Z,102125.94
2022-12-18T13:09:12.967Z,102128.47
2022-12-18T13:12:05.308Z,102122.28
2022-12-18T13:14:41.025Z,102116.78
2022-12-18T13:17:23.153Z,102109.38
2022-12-18T13:19:50.559Z,102111.06
2022-12-18T13:22:31.046Z,102110.50
2022-12-18T13:24:57.853Z,102106.53
2022-12-18T13:27:43.967Z,102092.84
2022-12-18T13:30:29.614Z,102093.28
2022-12-18T13:33:19.386Z,102104.69
2022-12-18T13:35:49.788Z,102089.84
2022-12-18T13:38:24.195Z,102097.75
2022-12-18T13:40:50.809Z,102105.94
2022-12-18T13:43:20.502Z,102108.94
2022-12-18T13:46:13.479Z,102109.72
2022-12-18T13:48:49.977Z,102108.41
2022-12-18T13:51:20.061Z,102095.81
2022-12-18T13:53:49.971Z,102095.38
2022-12-18T13:56:21.425Z,102090.50
2022-12-18T13:59:07.925Z,102108.78
2022-12-18T14:01:34.853Z,102115.09
2022-12-18T14:04:19.771Z,102111.97
2022-12-18T14:06:47.203Z,102102.25
2022-12-18T14:09:20.280Z,102091.72
2022-12-18T14:11:49.480Z,102082.84
2022-12-18T14:14:17.601Z,102086.22
2022-12-18T14:16:44.687Z,102105.41
2022-12-18T14:19:17.965Z,102109.34
2022-12-18T14:21:49.292Z,102103.00
2022-12-18T14:24:20.596Z,102110.09
2022-12-18T14:26:50.367Z,102113.63
2022-12-18T14:29:26.950Z,102109.94
2022-12-18T14:32:06.965Z,102117.97
2022-12-18T14:34:35.136Z,102114.66
2022-12-18T14:37:01.668Z,102105.88
2022-12-18T14:39:28.359Z,102109.94
2022-12-18T14:41:58.043Z,102093.38
2022-12-18T14:44:25.348Z,102094.91
2022-12-18T14:46:52.280Z,102086.84
2022-12-18T14:49:35.507Z,102076.97
2022-12-18T14:52:04.761Z,102078.88
2022-12-18T14:54:32.228Z,102096.03
2022-12-18T14:57:04.850Z,102082.81
2022-12-18T14:59:32.478Z,102081.63
2022-12-18T15:02:11.970Z,102082.47
2022-12-18T15:04:44.851Z,102082.88
2022-12-18T15:07:11.680Z,102075.53
2022-12-18T15:09:39.048Z,102077.78
2022-12-18T15:12:06.417Z,102078.47
2022-12-18T15:14:35.921Z,102067.03
2022-12-18T15:17:04.477Z,102068.97
2022-12-18T15:19:39.712Z,102070.94
2022-12-18T15:22:18.622Z,102063.25
2022-12-18T15:24:45.433Z,102069.50
2022-12-18T15:27:27.380Z,102068.53
2022-12-18T15:30:00.956Z,102063.09
2022-12-18T15:32:27.618Z,102057.69
2022-12-18T15:35:03.698Z,102042.47
2022-12-18T15:37:39.535Z,102034.03
2022-12-18T15:40:07.969Z,102033.47
2022-12-18T15:42:53.331Z,102015.06
2022-12-18T15:45:19.959Z,102020.84
2022-12-18T15:47:50.523Z,102020.56
2022-12-18T15:50:17.152Z,102016.09
2022-12-18T15:52:45.601Z,102007.53
2022-12-18T15:55:35.060Z,102007.94
2022-12-18T15:58:04.821Z,102006.56
2022-12-18T16:00:32.442Z,102005.06
2022-12-18T16:03:00.921Z,101998.56
2022-12-18T16:05:28.272Z,101996.81
2022-12-18T16:07:55.119Z,101995.03
2022-12-18T16:10:21.860Z,101987.22
2022-12-18T16:12:52.968Z,101990.63
2022-12-18T16:15:24.319Z,101986.84
2022-12-18T16:17:52.827Z,101983.28
2022-12-18T16:20:21.711Z,101988.47
2022-12-18T16:22:49.188Z,101978.72
2022-12-18T16:25:23.629Z,101969.44
2022-12-18T16:27:50.786Z,101965.78
2022-12-18T16:30:19.840Z,101969.81
2022-12-18T16:32:46.912Z,101972.88
2022-12-18T16:35:14.327Z,101961.19
2022-12-18T16:37:41.361Z,101956.56
2022-12-18T16:40:09.926Z,101959.19
2022-12-18T16:42:37.432Z,101981.66
2022-12-18T16:45:04.725Z,101969.84
2022-12-18T16:47:31.381Z,101975.81
2022-12-18T16:49:58.546Z,101977.94
2022-12-18T16:52:25.199Z,101972.59
2022-12-18T16:54:51.892Z,101957.28
2022-12-18T16:57:25.429Z,101957.13
2022-12-18T16:59:52.812Z,101952.94
2022-12-18T17:02:23.891Z,101936.34
2022-12-18T17:04:53.208Z,101944.09
2022-12-18T17:07:26.364Z,101943.34
2022-12-18T17:09:54.318Z,101950.22
2022-12-18T17:12:21.505Z,101956.25
2022-12-18T17:14:48.343Z,101945.19
2022-12-18T17:17:23.740Z,101954.00
2022-12-18T17:19:51.823Z,101960.13
2022-12-18T17:22:18.461Z,101960.94
2022-12-18T17:24:46.144Z,101965.91
2022-12-18T17:27:12.773Z,101945.31
2022-12-18T17:29:45.409Z,101941.91
2022-12-18T17:32:14.470Z,101957.56
2022-12-18T17:34:41.313Z,101955.09
2022-12-18T17:37:08.235Z,101953.88
2022-12-18T17:39:34.850Z,101955.78
2022-12-18T17:42:01.596Z,101956.66
2022-12-18T17:44:28.226Z,101945.06
2022-12-18T17:46:55.077Z,101943.34
2022-12-18T17:49:24.909Z,101947.63
2022-12-18T17:51:51.747Z,101936.03
2022-12-18T17:54:18.758Z,101933.63
2022-12-18T17:56:45.634Z,101918.31
2022-12-18T17:59:15.526Z,101915.38
2022-12-18T18:01:44.816Z,101920.56
2022-12-18T18:04:11.901Z,101902.28
2022-12-18T18:06:38.954Z,101898.75
2022-12-18T18:09:10.299Z,101902.41
2022-12-18T18:12:02.269Z,101902.16
2022-12-18T18:14:29.115Z,101899.78
2022-12-18T18:16:58.182Z,101898.50
2022-12-18T18:19:33.656Z,101891.69
2022-12-18T18:22:03.174Z,101891.97
2022-12-18T18:24:30.672Z,101888.69
2022-12-18T18:26:59.741Z,101888.94
2022-12-18T18:29:28.593Z,101882.13
2022-12-18T18:31:58.654Z,101883.53
2022-12-18T18:34:27.117Z,101873.91
2022-12-18T18:36:53.825Z,101866.25
2022-12-18T18:39:21.108Z,101865.88
2022-12-18T18:41:48.793Z,101858.94
2022-12-18T18:44:16.135Z,101848.84
2022-12-18T18:46:43.743Z,101851.81
2022-12-18T18:49:10.816Z,101851.25
2022-12-18T18:51:38.233Z,101849.22
2022-12-18T18:54:07.899Z,101843.44
2022-12-18T18:57:11.666Z,101844.44
2022-12-18T18:59:22.434Z,101848.53
2022-12-18T19:01:57.036Z,101829.41
2022-12-18T19:04:23.689Z,101846.66
2022-12-18T19:06:50.380Z,101837.59
2022-12-18T19:09:18.241Z,101841.75
2022-12-18T19:12:03.695Z,101839.13
2022-12-18T19:14:30.375Z,101830.66
2022-12-18T19:16:57.209Z,101834.44
2022-12-18T19:19:25.459Z,101834.91
2022-12-18T19:21:52.348Z,101842.91
2022-12-18T19:24:18.967Z,101826.13
2022-12-18T19:26:48.923Z,101829.47
2022-12-18T19:29:16.024Z,101831.88
2022-12-18T19:31:42.788Z,101846.31
2022-12-18T19:34:09.718Z,101832.09
2022-12-18T19:36:37.950Z,101836.09
2022-12-18T19:39:09.683Z,101831.81
2022-12-18T19:41:36.476Z,101819.91
2022-12-18T19:44:04.834Z,101818.66
2022-12-18T19:46:41.743Z,101812.28
2022-12-18T19:49:09.200Z,101805.50
2022-12-18T19:51:35.836Z,101799.91
2022-12-18T19:54:02.488Z,101791.84
2022-12-18T19:56:31.109Z,101786.75
2022-12-18T19:58:57.843Z,101778.53
2022-12-18T20:01:25.123Z,101795.44
2022-12-18T20:03:53.816Z,101796.03
2022-12-18T20:06:43.444Z,101789.66
2022-12-18T20:09:39.350Z,101788.00
2022-12-18T20:12:07.157Z,101789.53
2022-12-18T20:14:33.725Z,101804.06
2022-12-18T20:17:00.468Z,101797.19
2022-12-18T20:19:27.281Z,101785.72
2022-12-18T20:21:54.009Z,101789.16
2022-12-18T20:24:20.564Z,101786.84
2022-12-18T20:26:47.308Z,101777.31
2022-12-18T20:29:13.847Z,101772.03
2022-12-18T20:31:40.608Z,101780.28
2022-12-18T20:34:07.356Z,101777.94
2022-12-18T20:36:36.206Z,101774.41
2022-12-18T20:39:06.578Z,101774.31
2022-12-18T20:41:37.973Z,101752.41
2022-12-18T20:44:22.820Z,101744.56
2022-12-18T20:46:55.112Z,101747.69
2022-12-18T20:49:22.354Z,101735.38
2022-12-18T20:51:56.464Z,101730.53
2022-12-18T20:54:24.263Z,101717.47
2022-12-18T20:56:51.045Z,101706.44
2022-12-18T20:59:26.646Z,101705.94
2022-12-18T21:01:53.558Z,101715.88
2022-12-18T21:04:20.791Z,101725.22
2022-12-18T21:06:53.007Z,101728.91
2022-12-18T21:09:21.084Z,101739.19
2022-12-18T21:12:06.434Z,101734.78
2022-12-18T21:14:33.142Z,101733.22
2022-12-18T21:17:02.742Z,101742.00
2022-12-18T21:19:29.530Z,101746.38
2022-12-18T21:21:57.100Z,101747.69
2022-12-18T21:24:24.618Z,101747.03
2022-12-18T21:26:51.370Z,101745.94
2022-12-18T21:29:20.246Z,101725.16
2022-12-18T21:31:47.364Z,101723.75
2022-12-18T21:34:18.353Z,101729.25
2022-12-18T21:36:48.528Z,101712.28
2022-12-18T21:39:16.010Z,101702.38
2022-12-18T21:42:01.581Z,101685.91
2022-12-18T21:44:28.875Z,101685.19
2022-12-18T21:47:01.541Z,101681.47
2022-12-18T21:49:33.464Z,101669.72
2022-12-18T21:52:01.230Z,101670.09
2022-12-18T21:54:28.828Z,101686.13
2022-12-18T21:56:55.519Z,101702.66
2022-12-18T21:59:25.270Z,101708.97
2022-12-18T22:01:52.741Z,101723.25
2022-12-18T22:04:19.771Z,101720.81
2022-12-18T22:06:53.545Z,101726.78
2022-12-18T22:09:23.555Z,101717.91
2022-12-18T22:11:50.790Z,101678.59
2022-12-18T22:14:17.649Z,101654.16
2022-12-18T22:16:44.357Z,101644.91
2022-12-18T22:19:15.790Z,101638.63
2022-12-18T22:21:43.729Z,101616.53
2022-12-18T22:24:16.782Z,101656.88
2022-12-18T22:26:43.981Z,101649.91
2022-12-18T22:29:36.521Z,101645.44
2022-12-18T22:32:04.148Z,101669.44
2022-12-18T22:34:36.340Z,101661.16
2022-12-18T22:37:03.527Z,101669.44
2022-12-18T22:39:30.601Z,101668.25
2022-12-18T22:41:58.218Z,101646.03
2022-12-18T22:44:27.993Z,101659.53
2022-12-18T22:47:05.397Z,101643.53
2022-12-18T22:49:35.206Z,101644.31
2022-12-18T22:52:02.470Z,101620.63
2022-12-18T22:54:29.049Z,101631.13
2022-12-18T22:56:55.654Z,101626.78
2022-12-18T22:59:23.176Z,101628.13
2022-12-18T23:01:50.587Z,101611.44
2022-12-18T23:04:20.006Z,101601.66
2022-12-18T23:06:47.550Z,101589.75
2022-12-18T23:09:16.174Z,101595.63
2022-12-18T23:11:45.148Z,101595.38
2022-12-18T23:14:11.957Z,101579.31
2022-12-18T23:16:38.628Z,101582.41
2022-12-18T23:19:05.856Z,101586.94
2022-12-18T23:21:32.414Z,101573.06
2022-12-18T23:24:00.604Z,101575.56
2022-12-18T23:26:27.253Z,101574.13
2022-12-18T23:28:56.909Z,101575.00
2022-12-18T23:31:25.055Z,101563.44
2022-12-18T23:33:52.219Z,101561.50
2022-12-18T23:36:19.543Z,101547.81
2022-12-18T23:38:56.430Z,101543.34
2022-12-18T23:41:24.658Z,101542.22
2022-12-18T23:43:51.600Z,101524.81
2022-12-18T23:46:18.335Z,101512.78
2022-12-18T23:48:45.206Z,101520.34
2022-12-18T23:51:12.633Z,101530.09
2022-12-18T23:53:42.175Z,101528.88
2022-12-18T23:56:09.844Z,101531.31
2022-12-18T23:58:37.881Z,101534.28
